Time,TemperatureF,DewpointF,PressureIn,WindDirection,WindDirectionDegrees,WindSpeedMPH,WindSpeedGustMPH,Humidity,HourlyPrecipIn,Conditions,Clouds,dailyrainin,SolarRadiationWatts/m^2,SoftwareType,DateUTC
2013-06-25 00:00:00,53.1,15.3,30.12,SW,225,0.0,1.0,22,0.00,,,0.00,0,WeatherCatV1.20B653,2013-06-25 06:00:00,
2013-06-25 00:05:00,52.9,15.1,30.12,SW,225,0.0,0.0,22,0.00,,,0.00,0,WeatherCatV1.20B653,2013-06-25 06:05:00,
2013-06-25 00:10:00,52.9,15.1,30.12,SW,225,0.0,0.0,22,0.00,,,0.00,0,WeatherCatV1.20B653,2013-06-25 06:10:00,
2013-06-25 00:15:00,52.9,15.1,30.12,SW,225,0.0,0.0,22,0.00,,,0.00,0,WeatherCatV1.20B653,2013-06-25 06:15:00,
2013-06-25 00:20:00,52.5,15.8,30.12,SW,225,0.0,1.0,23,0.00,,,0.00,0,WeatherCatV1.20B653,2013-06-25 06:20:00,
2013-06-25 00:25:00,52.5,15.8,30.12,SW,225,0.0,1.0,23,0.00,,,0.00,0,WeatherCatV1.20B653,2013-06-25 06:25:00,
2013-06-25 00:30:00,52.5,15.8,30.12,SW,225,0.0,1.0,23,0.00,,,0.00,0,WeatherCatV1.20B653,2013-06-25 06:30:00,
2013-06-25 00:35:00,52.6,15.9,30.12,SW,225,0.0,5.0,23,0.00,,,0.00,0,WeatherCatV1.20B653,2013-06-25 06:35:00,
2013-06-25 00:40:00,52.6,15.9,30.12,SW,225,0.0,5.0,23,0.00,,,0.00,0,WeatherCatV1.20B653,2013-06-25 06:40:00,
2013-06-25 00:45:00,52.6,15.9,30.12,SW,225,0.0,5.0,23,0.00,,,0.00,0,WeatherCatV1.20B653,2013-06-25 06:45:00,
2013-06-25 00:50:00,51.7,16.1,30.11,SW,225,0.0,4.0,24,0.00,,,0.00,0,WeatherCatV1.20B653,2013-06-25 06:50:00,
2013-06-25 00:55:00,51.7,16.1,30.11,SW,225,0.0,4.0,24,0.00,,,0.00,0,WeatherCatV1.20B653,2013-06-25 06:55:00,
2013-06-25 01:00:00,51.7,16.1,30.11,SW,225,0.0,4.0,24,0.00,,,0.00,0,WeatherCatV1.20B653,2013-06-25 07:00:00,
2013-06-25 01:05:00,51.0,15.5,30.11,SW,225,1.0,5.0,24,0.00,,,0.00,0,WeatherCatV1.20B653,2013-06-25 07:05:00,
2013-06-25 01:10:00,51.0,15.5,30.11,SW,225,1.0,5.0,24,0.00,,,0.00,0,WeatherCatV1.20B653,2013-06-25 07:10:00,
2013-06-25 01:15:00,50.4,15.9,30.11,SW,225,0.0,2.0,25,0.00,,,0.00,0,WeatherCatV1.20B653,2013-06-25 07:15:00,
2013-06-25 01:20:00,50.4,15.9,30.11,SW,225,0.0,2.0,25,0.00,,,0.00,0,WeatherCatV1.20B653,2013-06-25 07:20:00,
2013-06-25 01:25:00,50.4,15.9,30.11,SW,225,0.0,2.0,25,0.00,,,0.00,0,WeatherCatV1.20B653,2013-06-25 07:25:00,
2013-06-25 01:30:00,50.8,16.3,30.12,SW,225,1.0,5.0,25,0.00,,,0.00,0,WeatherCatV1.20B653,2013-06-25 07:30:00,
2013-06-25 01:35:00,50.8,16.3,30.12,SW,225,1.0,5.0,25,0.00,,,0.00,0,WeatherCatV1.20B653,2013-06-25 07:35:00,
2013-06-25 01:40:00,50.8,16.3,30.12,SW,225,1.0,5.0,25,0.00,,,0.00,0,WeatherCatV1.20B653,2013-06-25 07:40:00,
2013-06-25 01:45:00,51.0,16.4,30.11,SW,225,2.0,6.0,25,0.00,,,0.00,0,WeatherCatV1.20B653,2013-06-25 07:45:00,
2013-06-25 01:50:00,51.0,16.4,30.11,SW,225,2.0,6.0,25,0.00,,,0.00,0,WeatherCatV1.20B653,2013-06-25 07:50:00,
2013-06-25 01:55:00,51.0,16.4,30.11,SW,225,2.0,6.0,25,0.00,,,0.00,0,WeatherCatV1.20B653,2013-06-25 07:55:00,
2013-06-25 02:00:00,51.0,16.4,30.11,SW,225,2.0,6.0,25,0.00,,,0.00,0,WeatherCatV1.20B653,2013-06-25 08:00:00,
2013-06-25 02:05:00,51.4,16.8,30.12,West,270,1.0,6.0,25,0.00,,,0.00,0,WeatherCatV1.20B653,2013-06-25 08:05:00,
2013-06-25 02:10:00,51.4,16.8,30.12,West,270,1.0,6.0,25,0.00,,,0.00,0,WeatherCatV1.20B653,2013-06-25 08:10:00,
2013-06-25 02:15:00,51.4,16.8,30.12,West,270,1.0,6.0,25,0.00,,,0.00,0,WeatherCatV1.20B653,2013-06-25 08:15:00,
2013-06-25 02:20:00,52.2,17.5,30.11,WNW,292,1.0,6.0,25,0.00,,,0.00,0,WeatherCatV1.20B653,2013-06-25 08:20:00,
2013-06-25 02:25:00,52.2,17.5,30.11,WNW,292,1.0,6.0,25,0.00,,,0.00,0,WeatherCatV1.20B653,2013-06-25 08:25:00,
2013-06-25 02:30:00,52.2,17.5,30.11,WNW,292,1.0,6.0,25,0.00,,,0.00,0,WeatherCatV1.20B653,2013-06-25 08:30:00,
2013-06-25 02:35:00,53.2,17.4,30.12,NNW,338,1.0,6.0,24,0.00,,,0.00,0,WeatherCatV1.20B653,2013-06-25 08:35:00,
2013-06-25 02:40:00,53.2,17.4,30.12,NNW,338,1.0,6.0,24,0.00,,,0.00,0,WeatherCatV1.20B653,2013-06-25 08:40:00,
2013-06-25 02:45:00,53.2,17.4,30.12,NNW,338,1.0,6.0,24,0.00,,,0.00,0,WeatherCatV1.20B653,2013-06-25 08:45:00,
2013-06-25 02:50:00,53.5,17.6,30.12,NNW,338,0.0,5.0,24,0.00,,,0.00,0,WeatherCatV1.20B653,2013-06-25 08:50:00,
2013-06-25 02:55:00,53.5,17.6,30.12,NNW,338,0.0,5.0,24,0.00,,,0.00,0,WeatherCatV1.20B653,2013-06-25 08:55:00,
2013-06-25 03:00:00,53.5,17.6,30.12,NNW,338,0.0,5.0,24,0.00,,,0.00,0,WeatherCatV1.20B653,2013-06-25 09:00:00,
2013-06-25 03:05:00,54.1,18.1,30.12,NNW,338,1.0,6.0,24,0.00,,,0.00,0,WeatherCatV1.20B653,2013-06-25 09:05:00,
2013-06-25 03:10:00,54.1,18.1,30.12,NNW,338,1.0,6.0,24,0.00,,,0.00,0,WeatherCatV1.20B653,2013-06-25 09:10:00,
2013-06-25 03:15:00,54.1,18.1,30.12,NNW,338,1.0,6.0,24,0.00,,,0.00,0,WeatherCatV1.20B653,2013-06-25 09:15:00,
2013-06-25 03:20:00,55.3,17.1,30.12,NNE,22,0.0,4.0,22,0.00,,,0.00,0,WeatherCatV1.20B653,2013-06-25 09:20:00,
2013-06-25 03:25:00,55.3,17.1,30.12,NNE,22,0.0,4.0,22,0.00,,,0.00,0,WeatherCatV1.20B653,2013-06-25 09:25:00,
2013-06-25 03:30:00,55.3,17.1,30.12,NNE,22,0.0,4.0,22,0.00,,,0.00,0,WeatherCatV1.20B653,2013-06-25 09:30:00,
2013-06-25 03:35:00,54.2,17.2,30.12,NNE,22,0.0,6.0,23,0.00,,,0.00,0,WeatherCatV1.20B653,2013-06-25 09:35:00,
2013-06-25 03:40:00,54.2,17.2,30.12,NNE,22,0.0,6.0,23,0.00,,,0.00,0,WeatherCatV1.20B653,2013-06-25 09:40:00,
2013-06-25 03:45:00,54.2,17.2,30.12,NNE,22,0.0,6.0,23,0.00,,,0.00,0,WeatherCatV1.20B653,2013-06-25 09:45:00,
2013-06-25 03:50:00,54.1,17.1,30.12,NNE,22,1.0,5.0,23,0.00,,,0.00,0,WeatherCatV1.20B653,2013-06-25 09:50:00,
2013-06-25 03:55:00,54.1,17.1,30.12,NNE,22,1.0,5.0,23,0.00,,,0.00,0,WeatherCatV1.20B653,2013-06-25 09:55:00,
2013-06-25 04:00:00,54.1,17.1,30.12,NNE,22,1.0,5.0,23,0.00,,,0.00,0,WeatherCatV1.20B653,2013-06-25 10:00:00,
2013-06-25 04:05:00,55.3,17.1,30.12,North,0,1.0,7.0,22,0.00,,,0.00,0,WeatherCatV1.20B653,2013-06-25 10:05:00,
2013-06-25 04:10:00,55.3,17.1,30.12,North,0,1.0,7.0,22,0.00,,,0.00,0,WeatherCatV1.20B653,2013-06-25 10:10:00,
2013-06-25 04:15:00,55.3,17.1,30.12,North,0,1.0,7.0,22,0.00,,,0.00,0,WeatherCatV1.20B653,2013-06-25 10:15:00,
2013-06-25 04:20:00,56.6,16.0,30.12,South,180,2.0,10.0,20,0.00,,,0.00,0,WeatherCatV1.20B653,2013-06-25 10:20:00,
2013-06-25 04:25:00,56.6,16.0,30.12,South,180,2.0,10.0,20,0.00,,,0.00,0,WeatherCatV1.20B653,2013-06-25 10:25:00,
2013-06-25 04:30:00,56.6,16.0,30.12,South,180,2.0,10.0,20,0.00,,,0.00,0,WeatherCatV1.20B653,2013-06-25 10:30:00,
2013-06-25 04:35:00,58.6,15.2,30.12,WSW,248,3.0,13.0,18,0.00,,,0.00,0,WeatherCatV1.20B653,2013-06-25 10:35:00,
2013-06-25 04:40:00,58.6,15.2,30.12,WSW,248,3.0,13.0,18,0.00,,,0.00,0,WeatherCatV1.20B653,2013-06-25 10:40:00,
2013-06-25 04:45:00,58.6,15.2,30.12,WSW,248,3.0,13.0,18,0.00,,,0.00,0,WeatherCatV1.20B653,2013-06-25 10:45:00,
2013-06-25 04:50:00,59.3,15.8,30.12,NW,315,3.0,14.0,18,0.00,,,0.00,0,WeatherCatV1.20B653,2013-06-25 10:50:00,
2013-06-25 04:55:00,59.3,15.8,30.12,NW,315,3.0,14.0,18,0.00,,,0.00,0,WeatherCatV1.20B653,2013-06-25 10:55:00,
2013-06-25 05:07:00,59.3,15.8,30.12,NW,315,3.0,14.0,18,0.00,,,0.00,0,WeatherCatV1.20B653,2013-06-25 11:07:00,
2013-06-25 05:12:00,58.1,14.8,30.12,NNW,329,7.0,13.0,18,0.00,,,0.00,0,WeatherCatV1.20B653,2013-06-25 11:12:00,
2013-06-25 05:17:00,58.4,15.1,30.12,NW,305,0.0,1.0,18,0.00,,,0.00,0,WeatherCatV1.20B653,2013-06-25 11:17:00,
2013-06-25 05:22:00,58.3,15.0,30.12,NW,305,1.0,2.0,18,0.00,,,0.00,0,WeatherCatV1.20B653,2013-06-25 11:22:00,
2013-06-25 05:27:00,58.0,14.8,30.12,NW,305,0.0,4.0,18,0.00,,,0.00,0,WeatherCatV1.20B653,2013-06-25 11:27:00,
2013-06-25 05:32:00,57.6,15.7,30.13,NW,305,0.0,0.0,19,0.00,,,0.00,0,WeatherCatV1.20B653,2013-06-25 11:32:00,
2013-06-25 05:37:00,57.8,14.6,30.13,NW,311,0.0,2.0,18,0.00,,,0.00,0,WeatherCatV1.20B653,2013-06-25 11:37:00,
2013-06-25 05:42:00,57.8,14.6,30.13,NW,311,5.0,6.0,18,0.00,,,0.00,5,WeatherCatV1.20B653,2013-06-25 11:42:00,
2013-06-25 05:47:00,58.1,14.8,30.13,WSW,237,5.0,11.0,18,0.00,,,0.00,7,WeatherCatV1.20B653,2013-06-25 11:47:00,
2013-06-25 05:52:00,58.3,15.0,30.13,West,278,0.0,4.0,18,0.00,,,0.00,11,WeatherCatV1.20B653,2013-06-25 11:52:00,
2013-06-25 05:57:00,58.3,15.0,30.13,West,280,0.0,0.0,18,0.00,,,0.00,11,WeatherCatV1.20B653,2013-06-25 11:57:00,
2013-06-25 06:02:00,58.3,15.0,30.13,NW,304,6.0,6.0,18,0.00,,,0.00,12,WeatherCatV1.20B653,2013-06-25 12:02:00,
2013-06-25 06:07:00,58.7,14.0,30.13,NE,51,5.0,7.0,17,0.00,,,0.00,16,WeatherCatV1.20B653,2013-06-25 12:07:00,
2013-06-25 06:12:00,58.6,13.9,30.13,West,260,0.0,8.0,17,0.00,,,0.00,21,WeatherCatV1.20B653,2013-06-25 12:12:00,
2013-06-25 06:17:00,58.7,14.0,30.14,West,264,0.0,3.0,17,0.00,,,0.00,23,WeatherCatV1.20B653,2013-06-25 12:17:00,
2013-06-25 06:22:00,58.7,12.6,30.14,South,181,0.0,2.0,16,0.00,,,0.00,19,WeatherCatV1.20B653,2013-06-25 12:22:00,
2013-06-25 06:27:00,59.0,12.9,30.14,WNW,296,0.0,1.0,16,0.00,,,0.00,19,WeatherCatV1.20B653,2013-06-25 12:27:00,
2013-06-25 06:32:00,59.2,14.4,30.14,SW,233,3.0,3.0,17,0.00,,,0.00,21,WeatherCatV1.20B653,2013-06-25 12:32:00,
2013-06-25 06:37:00,59.3,14.5,30.14,NNW,344,0.0,5.0,17,0.00,,,0.00,21,WeatherCatV1.20B653,2013-06-25 12:37:00,
2013-06-25 06:42:00,59.2,14.4,30.14,NNW,329,0.0,4.0,17,0.00,,,0.00,25,WeatherCatV1.20B653,2013-06-25 12:42:00,
2013-06-25 06:47:00,59.3,14.5,30.14,WNW,298,1.0,11.0,17,0.00,,,0.00,28,WeatherCatV1.20B653,2013-06-25 12:47:00,
2013-06-25 06:52:00,59.6,14.8,30.14,WNW,295,7.0,17.0,17,0.00,,,0.00,185,WeatherCatV1.20B653,2013-06-25 12:52:00,
2013-06-25 06:57:00,60.2,15.2,30.14,North,359,5.0,19.0,17,0.00,,,0.00,201,WeatherCatV1.20B653,2013-06-25 12:57:00,
2013-06-25 07:02:00,60.7,15.6,30.14,NW,308,0.0,4.0,17,0.00,,,0.00,216,WeatherCatV1.20B653,2013-06-25 13:02:00,
2013-06-25 07:07:00,61.0,15.9,30.14,WSW,243,2.0,7.0,17,0.00,,,0.00,234,WeatherCatV1.20B653,2013-06-25 13:07:00,
2013-06-25 07:12:00,61.3,16.1,30.14,WSW,254,3.0,12.0,17,0.00,,,0.00,252,WeatherCatV1.20B653,2013-06-25 13:12:00,
2013-06-25 07:17:00,61.6,16.4,30.14,WSW,240,5.0,10.0,17,0.00,,,0.00,267,WeatherCatV1.20B653,2013-06-25 13:17:00,
2013-06-25 07:22:00,62.0,16.7,30.14,West,280,10.0,10.0,17,0.00,,,0.00,283,WeatherCatV1.20B653,2013-06-25 13:22:00,
2013-06-25 07:27:00,62.1,16.8,30.14,NNW,328,0.0,12.0,17,0.00,,,0.00,301,WeatherCatV1.20B653,2013-06-25 13:27:00,
2013-06-25 07:32:00,62.1,16.8,30.15,WNW,298,18.0,27.0,17,0.00,,,0.00,318,WeatherCatV1.20B653,2013-06-25 13:32:00,
2013-06-25 07:37:00,62.3,16.9,30.15,WSW,256,7.0,25.0,17,0.00,,,0.00,334,WeatherCatV1.20B653,2013-06-25 13:37:00,
2013-06-25 07:42:00,62.4,17.0,30.15,West,267,11.0,18.0,17,0.00,,,0.00,352,WeatherCatV1.20B653,2013-06-25 13:42:00,
2013-06-25 07:47:00,62.4,17.0,30.15,West,274,10.0,12.0,17,0.00,,,0.00,368,WeatherCatV1.20B653,2013-06-25 13:47:00,
2013-06-25 07:52:00,62.7,17.3,30.15,West,278,8.0,13.0,17,0.00,,,0.00,385,WeatherCatV1.20B653,2013-06-25 13:52:00,
2013-06-25 07:57:00,62.7,17.3,30.15,SW,230,5.0,9.0,17,0.00,,,0.00,401,WeatherCatV1.20B653,2013-06-25 13:57:00,
2013-06-25 08:02:00,62.9,17.4,30.15,West,263,10.0,19.0,17,0.00,,,0.00,419,WeatherCatV1.20B653,2013-06-25 14:02:00,
2013-06-25 08:07:00,62.9,17.4,30.15,WNW,294,12.0,20.0,17,0.00,,,0.00,435,WeatherCatV1.20B653,2013-06-25 14:07:00,
2013-06-25 08:12:00,63.2,17.7,30.15,WSW,248,11.0,15.0,17,0.00,,,0.00,450,WeatherCatV1.20B653,2013-06-25 14:12:00,
2013-06-25 08:17:00,63.5,17.9,30.16,West,268,6.0,12.0,17,0.00,,,0.00,468,WeatherCatV1.20B653,2013-06-25 14:17:00,
2013-06-25 08:22:00,63.9,18.2,30.16,WSW,251,6.0,14.0,17,0.00,,,0.00,484,WeatherCatV1.20B653,2013-06-25 14:22:00,
2013-06-25 08:27:00,63.9,18.2,30.16,SW,224,9.0,14.0,17,0.00,,,0.00,501,WeatherCatV1.20B653,2013-06-25 14:27:00,
2013-06-25 08:32:00,64.2,18.5,30.16,WSW,253,9.0,19.0,17,0.00,,,0.00,517,WeatherCatV1.20B653,2013-06-25 14:32:00,
2013-06-25 08:37:00,64.2,18.5,30.16,West,267,9.0,13.0,17,0.00,,,0.00,533,WeatherCatV1.20B653,2013-06-25 14:37:00,
2013-06-25 08:42:00,64.2,18.5,30.16,SSW,213,3.0,18.0,17,0.00,,,0.00,551,WeatherCatV1.20B653,2013-06-25 14:42:00,
2013-06-25 08:47:00,64.7,18.9,30.16,SW,222,5.0,9.0,17,0.00,,,0.00,565,WeatherCatV1.20B653,2013-06-25 14:47:00,
2013-06-25 08:52:00,65.0,17.7,30.16,WSW,237,7.0,18.0,16,0.00,,,0.00,582,WeatherCatV1.20B653,2013-06-25 14:52:00,
2013-06-25 08:57:00,65.0,19.1,30.16,West,268,12.0,17.0,17,0.00,,,0.00,596,WeatherCatV1.20B653,2013-06-25 14:57:00,
2013-06-25 09:02:00,65.2,17.9,30.17,SW,223,8.0,9.0,16,0.00,,,0.00,612,WeatherCatV1.20B653,2013-06-25 15:02:00,
2013-06-25 09:07:00,65.6,18.2,30.17,SW,223,11.0,12.0,16,0.00,,,0.00,626,WeatherCatV1.20B653,2013-06-25 15:07:00,
2013-06-25 09:12:00,66.0,18.5,30.17,SSW,202,11.0,20.0,16,0.00,,,0.00,642,WeatherCatV1.20B653,2013-06-25 15:12:00,
2013-06-25 09:17:00,65.8,18.4,30.17,West,270,12.0,17.0,16,0.00,,,0.00,656,WeatherCatV1.20B653,2013-06-25 15:17:00,
2013-06-25 09:22:00,66.0,18.5,30.17,SSW,202,10.0,11.0,16,0.00,,,0.00,669,WeatherCatV1.20B653,2013-06-25 15:22:00,
2013-06-25 09:27:00,66.3,18.8,30.17,NW,312,11.0,11.0,16,0.00,,,0.00,684,WeatherCatV1.20B653,2013-06-25 15:27:00,
2013-06-25 09:32:00,67.1,19.4,30.17,WNW,288,10.0,20.0,16,0.00,,,0.00,699,WeatherCatV1.20B653,2013-06-25 15:32:00,
2013-06-25 09:37:00,66.9,17.8,30.17,WSW,256,14.0,20.0,15,0.00,,,0.00,713,WeatherCatV1.20B653,2013-06-25 15:37:00,
2013-06-25 09:42:00,67.1,17.9,30.17,West,267,8.0,14.0,15,0.00,,,0.00,723,WeatherCatV1.20B653,2013-06-25 15:42:00,
2013-06-25 09:47:00,67.1,17.9,30.17,WSW,247,11.0,25.0,15,0.00,,,0.00,737,WeatherCatV1.20B653,2013-06-25 15:47:00,
2013-06-25 09:52:00,66.8,17.7,30.17,West,268,11.0,16.0,15,0.00,,,0.00,748,WeatherCatV1.20B653,2013-06-25 15:52:00,
2013-06-25 09:57:00,66.8,19.2,30.17,SSW,209,5.0,17.0,16,0.00,,,0.00,758,WeatherCatV1.20B653,2013-06-25 15:57:00,
2013-06-25 10:02:00,66.9,17.8,30.17,NW,305,22.0,24.0,15,0.00,,,0.00,772,WeatherCatV1.20B653,2013-06-25 16:02:00,
2013-06-25 10:07:00,67.3,18.1,30.17,WSW,253,10.0,26.0,15,0.00,,,0.00,783,WeatherCatV1.20B653,2013-06-25 16:07:00,
2013-06-25 10:12:00,67.8,20.0,30.17,WNW,294,11.0,16.0,16,0.00,,,0.00,795,WeatherCatV1.20B653,2013-06-25 16:12:00,
2013-06-25 10:17:00,68.1,18.7,30.17,West,267,10.0,19.0,15,0.00,,,0.00,808,WeatherCatV1.20B653,2013-06-25 16:17:00,
2013-06-25 10:22:00,68.1,18.7,30.17,West,272,5.0,24.0,15,0.00,,,0.00,816,WeatherCatV1.20B653,2013-06-25 16:22:00,
2013-06-25 10:27:00,68.3,18.9,30.17,WNW,296,17.0,21.0,15,0.00,,,0.00,829,WeatherCatV1.20B653,2013-06-25 16:27:00,
2013-06-25 10:32:00,68.3,18.9,30.17,WSW,250,7.0,20.0,15,0.00,,,0.00,839,WeatherCatV1.20B653,2013-06-25 16:32:00,
2013-06-25 10:37:00,68.8,19.3,30.17,SSW,213,11.0,26.0,15,0.00,,,0.00,850,WeatherCatV1.20B653,2013-06-25 16:37:00,
2013-06-25 10:42:00,68.8,19.3,30.17,SW,217,11.0,26.0,15,0.00,,,0.00,859,WeatherCatV1.20B653,2013-06-25 16:42:00,
2013-06-25 10:47:00,69.3,19.7,30.17,NW,319,11.0,16.0,15,0.00,,,0.00,867,WeatherCatV1.20B653,2013-06-25 16:47:00,
2013-06-25 10:52:00,69.4,19.8,30.17,SSW,202,11.0,22.0,15,0.00,,,0.00,878,WeatherCatV1.20B653,2013-06-25 16:52:00,
2013-06-25 10:57:00,69.6,19.9,30.17,West,263,14.0,28.0,15,0.00,,,0.00,889,WeatherCatV1.20B653,2013-06-25 16:57:00,
2013-06-25 11:02:00,69.4,19.8,30.17,WSW,244,11.0,24.0,15,0.00,,,0.00,896,WeatherCatV1.20B653,2013-06-25 17:02:00,
2013-06-25 11:07:00,69.3,19.7,30.17,SW,227,17.0,21.0,15,0.00,,,0.00,903,WeatherCatV1.20B653,2013-06-25 17:07:00,
2013-06-25 11:12:00,69.1,19.5,30.17,South,174,6.0,20.0,15,0.00,,,0.00,913,WeatherCatV1.20B653,2013-06-25 17:12:00,
2013-06-25 11:17:00,69.6,19.9,30.18,WSW,247,17.0,21.0,15,0.00,,,0.00,922,WeatherCatV1.20B653,2013-06-25 17:17:00,
2013-06-25 11:22:00,69.8,21.6,30.18,WSW,250,13.0,22.0,16,0.00,,,0.00,931,WeatherCatV1.20B653,2013-06-25 17:22:00,
2013-06-25 11:27:00,69.9,21.7,30.18,WNW,287,7.0,19.0,16,0.00,,,0.00,936,WeatherCatV1.20B653,2013-06-25 17:27:00,
2013-06-25 11:32:00,70.4,20.5,30.18,SSW,200,13.0,26.0,15,0.00,,,0.00,943,WeatherCatV1.20B653,2013-06-25 17:32:00,
2013-06-25 11:37:00,70.6,20.7,30.18,South,185,7.0,28.0,15,0.00,,,0.00,950,WeatherCatV1.20B653,2013-06-25 17:37:00,
2013-06-25 11:42:00,70.8,20.9,30.18,South,186,8.0,22.0,15,0.00,,,0.00,957,WeatherCatV1.20B653,2013-06-25 17:42:00,
2013-06-25 11:47:00,71.1,21.1,30.18,WSW,251,11.0,24.0,15,0.00,,,0.00,964,WeatherCatV1.20B653,2013-06-25 17:47:00,
2013-06-25 11:52:00,71.3,21.3,30.18,West,278,6.0,18.0,15,0.00,,,0.00,970,WeatherCatV1.20B653,2013-06-25 17:52:00,
2013-06-25 11:57:00,71.6,21.5,30.18,West,270,19.0,22.0,15,0.00,,,0.00,973,WeatherCatV1.20B653,2013-06-25 17:57:00,
2013-06-25 12:02:00,71.8,21.7,30.18,SSW,192,6.0,29.0,15,0.00,,,0.00,980,WeatherCatV1.20B653,2013-06-25 18:02:00,
2013-06-25 12:07:00,72.0,20.2,30.18,WSW,257,25.0,27.0,14,0.00,,,0.00,982,WeatherCatV1.20B653,2013-06-25 18:07:00,
2013-06-25 12:12:00,72.0,21.8,30.18,WNW,287,19.0,22.0,15,0.00,,,0.00,987,WeatherCatV1.20B653,2013-06-25 18:12:00,
2013-06-25 12:17:00,72.5,22.2,30.18,WSW,254,3.0,16.0,15,0.00,,,0.00,991,WeatherCatV1.20B653,2013-06-25 18:17:00,
2013-06-25 12:22:00,72.8,22.5,30.18,West,278,12.0,22.0,15,0.00,,,0.00,994,WeatherCatV1.20B653,2013-06-25 18:22:00,
2013-06-25 12:27:00,72.8,22.5,30.18,West,281,2.0,13.0,15,0.00,,,0.00,998,WeatherCatV1.20B653,2013-06-25 18:27:00,
2013-06-25 12:32:00,73.5,21.4,30.18,WSW,241,9.0,21.0,14,0.00,,,0.00,999,WeatherCatV1.20B653,2013-06-25 18:32:00,
2013-06-25 12:37:00,73.3,22.9,30.18,West,280,18.0,18.0,15,0.00,,,0.00,1001,WeatherCatV1.20B653,2013-06-25 18:37:00,
2013-06-25 12:42:00,73.0,22.6,30.18,WSW,256,17.0,27.0,15,0.00,,,0.00,1001,WeatherCatV1.20B653,2013-06-25 18:42:00,
2013-06-25 12:47:00,72.8,22.5,30.18,West,268,17.0,29.0,15,0.00,,,0.00,1001,WeatherCatV1.20B653,2013-06-25 18:47:00,
2013-06-25 12:52:00,73.2,22.8,30.18,South,179,10.0,20.0,15,0.00,,,0.00,1005,WeatherCatV1.20B653,2013-06-25 18:52:00,
2013-06-25 12:57:00,73.3,22.9,30.18,WNW,288,14.0,22.0,15,0.00,,,0.00,1003,WeatherCatV1.20B653,2013-06-25 18:57:00,
2013-06-25 13:02:00,73.5,23.0,30.18,SW,234,13.0,20.0,15,0.00,,,0.00,1001,WeatherCatV1.20B653,2013-06-25 19:02:00,
2013-06-25 13:07:00,73.7,23.2,30.18,West,270,12.0,25.0,15,0.00,,,0.00,1003,WeatherCatV1.20B653,2013-06-25 19:07:00,
2013-06-25 13:12:00,73.7,23.2,30.18,WNW,289,10.0,27.0,15,0.00,,,0.00,1001,WeatherCatV1.20B653,2013-06-25 19:12:00,
2013-06-25 13:17:00,73.5,24.6,30.18,SSW,209,9.0,16.0,16,0.00,,,0.00,1005,WeatherCatV1.20B653,2013-06-25 19:17:00,
2013-06-25 13:22:00,74.0,23.4,30.18,WSW,251,5.0,19.0,15,0.00,,,0.00,1001,WeatherCatV1.20B653,2013-06-25 19:22:00,
2013-06-25 13:27:00,74.7,24.0,30.18,NW,306,16.0,24.0,15,0.00,,,0.00,1001,WeatherCatV1.20B653,2013-06-25 19:27:00,
2013-06-25 13:32:00,74.7,24.0,30.18,WNW,289,16.0,21.0,15,0.00,,,0.00,999,WeatherCatV1.20B653,2013-06-25 19:32:00,
2013-06-25 13:37:00,74.4,23.7,30.18,SW,227,8.0,21.0,15,0.00,,,0.00,996,WeatherCatV1.20B653,2013-06-25 19:37:00,
2013-06-25 13:42:00,74.7,24.0,30.18,South,188,14.0,22.0,15,0.00,,,0.00,992,WeatherCatV1.20B653,2013-06-25 19:42:00,
2013-06-25 13:47:00,75.3,24.5,30.18,WSW,256,7.0,19.0,15,0.00,,,0.00,987,WeatherCatV1.20B653,2013-06-25 19:47:00,
2013-06-25 13:52:00,75.4,24.5,30.18,West,272,11.0,22.0,15,0.00,,,0.00,984,WeatherCatV1.20B653,2013-06-25 19:52:00,
2013-06-25 13:57:00,75.6,24.7,30.18,SSW,198,10.0,19.0,15,0.00,,,0.00,980,WeatherCatV1.20B653,2013-06-25 19:57:00,
2013-06-25 14:02:00,76.0,23.4,30.18,West,260,9.0,21.0,14,0.00,,,0.00,977,WeatherCatV1.20B653,2013-06-25 20:02:00,
2013-06-25 14:07:00,75.8,24.9,30.18,WSW,257,14.0,19.0,15,0.00,,,0.00,971,WeatherCatV1.20B653,2013-06-25 20:07:00,
2013-06-25 14:12:00,75.4,24.5,30.18,WSW,246,18.0,27.0,15,0.00,,,0.00,968,WeatherCatV1.20B653,2013-06-25 20:12:00,
2013-06-25 14:17:00,75.1,24.3,30.19,SSW,198,18.0,33.0,15,0.00,,,0.00,966,WeatherCatV1.20B653,2013-06-25 20:17:00,
2013-06-25 14:22:00,76.0,25.0,30.19,WNW,282,13.0,20.0,15,0.00,,,0.00,955,WeatherCatV1.20B653,2013-06-25 20:22:00,
2013-06-25 14:27:00,75.6,24.7,30.19,WNW,295,10.0,18.0,15,0.00,,,0.00,952,WeatherCatV1.20B653,2013-06-25 20:27:00,
2013-06-25 14:32:00,76.1,23.4,30.18,SW,222,19.0,24.0,14,0.00,,,0.00,947,WeatherCatV1.20B653,2013-06-25 20:32:00,
2013-06-25 14:37:00,76.1,23.4,30.18,WSW,256,7.0,19.0,14,0.00,,,0.00,938,WeatherCatV1.20B653,2013-06-25 20:37:00,
2013-06-25 14:42:00,76.0,23.4,30.18,South,169,12.0,24.0,14,0.00,,,0.00,927,WeatherCatV1.20B653,2013-06-25 20:42:00,
2013-06-25 14:47:00,76.5,23.8,30.18,SW,224,21.0,25.0,14,0.00,,,0.00,922,WeatherCatV1.20B653,2013-06-25 20:47:00,
2013-06-25 14:52:00,76.3,23.6,30.18,WSW,241,17.0,24.0,14,0.00,,,0.00,917,WeatherCatV1.20B653,2013-06-25 20:52:00,
2013-06-25 14:57:00,76.7,23.9,30.18,WSW,253,12.0,26.0,14,0.00,,,0.00,906,WeatherCatV1.20B653,2013-06-25 20:57:00,
2013-06-25 15:03:00,76.8,24.0,30.18,West,275,11.0,21.0,14,0.00,,,0.00,903,WeatherCatV1.20B653,2013-06-25 21:03:00,
2013-06-25 15:08:00,77.4,24.5,30.18,SSW,210,4.0,22.0,14,0.00,,,0.00,880,WeatherCatV1.20B653,2013-06-25 21:08:00,
2013-06-25 15:13:00,77.6,24.6,30.18,NNW,328,12.0,22.0,14,0.00,,,0.00,883,WeatherCatV1.20B653,2013-06-25 21:13:00,
2013-06-25 15:18:00,77.9,23.1,30.18,West,261,7.0,11.0,13,0.00,,,0.00,873,WeatherCatV1.20B653,2013-06-25 21:18:00,
2013-06-25 15:23:00,78.3,23.4,30.18,West,271,2.0,19.0,13,0.00,,,0.00,797,WeatherCatV1.20B653,2013-06-25 21:23:00,
2013-06-25 15:28:00,77.9,24.9,30.18,SW,232,12.0,19.0,14,0.00,,,0.00,788,WeatherCatV1.20B653,2013-06-25 21:28:00,
2013-06-25 15:33:00,77.4,24.5,30.18,WSW,237,12.0,19.0,14,0.00,,,0.00,771,WeatherCatV1.20B653,2013-06-25 21:33:00,
2013-06-25 15:38:00,77.0,24.1,30.18,NNW,346,1.0,10.0,14,0.00,,,0.00,797,WeatherCatV1.20B653,2013-06-25 21:38:00,
2013-06-25 15:43:00,78.1,25.0,30.18,WNW,287,2.0,19.0,14,0.00,,,0.00,790,WeatherCatV1.20B653,2013-06-25 21:43:00,
2013-06-25 15:48:00,78.1,25.0,30.17,WSW,254,5.0,24.0,14,0.00,,,0.00,795,WeatherCatV1.20B653,2013-06-25 21:48:00,
2013-06-25 15:53:00,78.1,25.0,30.17,SSW,195,6.0,21.0,14,0.00,,,0.00,792,WeatherCatV1.20B653,2013-06-25 21:53:00,
2013-06-25 15:58:00,78.5,23.6,30.17,NW,325,11.0,22.0,13,0.00,,,0.00,778,WeatherCatV1.20B653,2013-06-25 21:58:00,
2013-06-25 16:03:00,79.0,24.0,30.17,West,274,16.0,16.0,13,0.00,,,0.00,769,WeatherCatV1.20B653,2013-06-25 22:03:00,
2013-06-25 16:08:00,79.6,24.4,30.17,West,268,7.0,13.0,13,0.00,,,0.00,751,WeatherCatV1.20B653,2013-06-25 22:08:00,
2013-06-25 16:13:00,79.9,24.7,30.17,NNW,337,12.0,17.0,13,0.00,,,0.00,743,WeatherCatV1.20B653,2013-06-25 22:13:00,
2013-06-25 16:18:00,79.2,24.1,30.17,WNW,288,11.0,18.0,13,0.00,,,0.00,727,WeatherCatV1.20B653,2013-06-25 22:18:00,
2013-06-25 16:23:00,78.8,23.8,30.17,NNW,333,12.0,17.0,13,0.00,,,0.00,716,WeatherCatV1.20B653,2013-06-25 22:23:00,
2013-06-25 16:28:00,78.6,23.6,30.17,WNW,301,13.0,24.0,13,0.00,,,0.00,702,WeatherCatV1.20B653,2013-06-25 22:28:00,
2013-06-25 16:33:00,78.5,23.6,30.17,SSW,213,7.0,14.0,13,0.00,,,0.00,686,WeatherCatV1.20B653,2013-06-25 22:33:00,
2013-06-25 16:38:00,78.5,23.6,30.17,WNW,291,20.0,20.0,13,0.00,,,0.00,674,WeatherCatV1.20B653,2013-06-25 22:38:00,
2013-06-25 16:43:00,78.5,25.3,30.17,SSW,203,10.0,20.0,14,0.00,,,0.00,658,WeatherCatV1.20B653,2013-06-25 22:43:00,
2013-06-25 16:48:00,78.3,23.4,30.17,WNW,295,7.0,17.0,13,0.00,,,0.00,648,WeatherCatV1.20B653,2013-06-25 22:48:00,
2013-06-25 16:53:00,78.5,25.3,30.17,WNW,284,13.0,18.0,14,0.00,,,0.00,632,WeatherCatV1.20B653,2013-06-25 22:53:00,
2013-06-25 16:58:00,78.6,25.4,30.17,SW,233,3.0,7.0,14,0.00,,,0.00,616,WeatherCatV1.20B653,2013-06-25 22:58:00,
2013-06-25 17:03:00,78.8,23.8,30.17,WSW,246,1.0,19.0,13,0.00,,,0.00,598,WeatherCatV1.20B653,2013-06-25 23:03:00,
2013-06-25 17:08:00,78.6,23.6,30.17,NNW,330,6.0,19.0,13,0.00,,,0.00,586,WeatherCatV1.20B653,2013-06-25 23:08:00,
2013-06-25 17:13:00,78.5,23.6,30.17,WSW,243,5.0,17.0,13,0.00,,,0.00,572,WeatherCatV1.20B653,2013-06-25 23:13:00,
2013-06-25 17:18:00,78.5,25.3,30.17,WSW,251,18.0,20.0,14,0.00,,,0.00,558,WeatherCatV1.20B653,2013-06-25 23:18:00,
2013-06-25 17:23:00,78.1,23.2,30.17,West,277,9.0,19.0,13,0.00,,,0.00,540,WeatherCatV1.20B653,2013-06-25 23:23:00,
2013-06-25 17:28:00,78.1,25.0,30.17,SW,227,3.0,20.0,14,0.00,,,0.00,528,WeatherCatV1.20B653,2013-06-25 23:28:00,
2013-06-25 17:33:00,78.3,23.4,30.17,WNW,287,8.0,20.0,13,0.00,,,0.00,514,WeatherCatV1.20B653,2013-06-25 23:33:00,
2013-06-25 17:38:00,78.3,23.4,30.17,NW,318,5.0,17.0,13,0.00,,,0.00,498,WeatherCatV1.20B653,2013-06-25 23:38:00,
2013-06-25 17:43:00,78.3,23.4,30.17,WNW,301,14.0,24.0,13,0.00,,,0.00,479,WeatherCatV1.20B653,2013-06-25 23:43:00,
2013-06-25 17:48:00,78.1,23.2,30.17,NW,311,4.0,12.0,13,0.00,,,0.00,465,WeatherCatV1.20B653,2013-06-25 23:48:00,
2013-06-25 17:53:00,78.5,23.6,30.17,NW,315,11.0,25.0,13,0.00,,,0.00,450,WeatherCatV1.20B653,2013-06-25 23:53:00,
2013-06-25 17:58:00,77.9,23.1,30.17,WNW,291,10.0,15.0,13,0.00,,,0.00,433,WeatherCatV1.20B653,2013-06-25 23:58:00,
2013-06-25 18:03:00,77.7,22.9,30.17,WSW,244,13.0,19.0,13,0.00,,,0.00,415,WeatherCatV1.20B653,2013-06-26 00:03:00,
2013-06-25 18:08:00,77.9,23.1,30.17,NW,306,5.0,13.0,13,0.00,,,0.00,401,WeatherCatV1.20B653,2013-06-26 00:08:00,
2013-06-25 18:13:00,77.9,24.9,30.17,West,263,8.0,17.0,14,0.00,,,0.00,384,WeatherCatV1.20B653,2013-06-26 00:13:00,
2013-06-25 18:18:00,77.6,24.6,30.17,WSW,251,8.0,24.0,14,0.00,,,0.00,370,WeatherCatV1.20B653,2013-06-26 00:18:00,
2013-06-25 18:23:00,76.8,24.0,30.17,SW,229,11.0,26.0,14,0.00,,,0.00,352,WeatherCatV1.20B653,2013-06-26 00:23:00,
2013-06-25 18:28:00,76.7,23.9,30.17,WSW,240,13.0,17.0,14,0.00,,,0.00,334,WeatherCatV1.20B653,2013-06-26 00:28:00,
2013-06-25 18:33:00,77.0,24.1,30.17,NW,318,6.0,14.0,14,0.00,,,0.00,317,WeatherCatV1.20B653,2013-06-26 00:33:00,
2013-06-25 18:38:00,77.4,24.5,30.17,West,265,11.0,13.0,14,0.00,,,0.00,303,WeatherCatV1.20B653,2013-06-26 00:38:00,
2013-06-25 18:43:00,77.4,24.5,30.17,WSW,256,13.0,13.0,14,0.00,,,0.00,287,WeatherCatV1.20B653,2013-06-26 00:43:00,
2013-06-25 18:48:00,77.4,22.7,30.18,WNW,292,15.0,24.0,13,0.00,,,0.00,269,WeatherCatV1.20B653,2013-06-26 00:48:00,
2013-06-25 18:53:00,76.7,23.9,30.18,West,275,18.0,21.0,14,0.00,,,0.00,253,WeatherCatV1.20B653,2013-06-26 00:53:00,
2013-06-25 18:58:00,76.3,23.6,30.18,WSW,257,15.0,21.0,14,0.00,,,0.00,238,WeatherCatV1.20B653,2013-06-26 00:58:00,
2013-06-25 19:03:00,76.0,23.4,30.18,WNW,294,3.0,8.0,14,0.00,,,0.00,222,WeatherCatV1.20B653,2013-06-26 01:03:00,
2013-06-25 19:08:00,76.1,23.4,30.18,NW,308,13.0,19.0,14,0.00,,,0.00,204,WeatherCatV1.20B653,2013-06-26 01:08:00,
2013-06-25 19:13:00,76.3,25.2,30.18,WNW,295,5.0,6.0,15,0.00,,,0.00,190,WeatherCatV1.20B653,2013-06-26 01:13:00,
2013-06-25 19:18:00,76.3,25.2,30.18,WNW,298,9.0,13.0,15,0.00,,,0.00,174,WeatherCatV1.20B653,2013-06-26 01:18:00,
2013-06-25 19:23:00,75.8,24.9,30.18,WNW,299,8.0,11.0,15,0.00,,,0.00,23,WeatherCatV1.20B653,2013-06-26 01:23:00,
2013-06-25 19:28:00,74.9,24.1,30.18,West,260,11.0,18.0,15,0.00,,,0.00,21,WeatherCatV1.20B653,2013-06-26 01:28:00,
2013-06-25 19:33:00,74.0,25.0,30.18,WSW,241,11.0,13.0,16,0.00,,,0.00,21,WeatherCatV1.20B653,2013-06-26 01:33:00,
2013-06-25 19:38:00,73.7,24.7,30.18,NW,316,4.0,11.0,16,0.00,,,0.00,19,WeatherCatV1.20B653,2013-06-26 01:38:00,
2013-06-25 19:43:00,73.2,24.3,30.18,NW,308,10.0,12.0,16,0.00,,,0.00,19,WeatherCatV1.20B653,2013-06-26 01:43:00,
2013-06-25 19:48:00,73.0,25.6,30.19,West,275,5.0,11.0,17,0.00,,,0.00,18,WeatherCatV1.20B653,2013-06-26 01:48:00,
2013-06-25 19:53:00,72.5,25.2,30.19,WNW,285,6.0,11.0,17,0.00,,,0.00,18,WeatherCatV1.20B653,2013-06-26 01:53:00,
2013-06-25 19:58:00,72.1,24.9,30.19,NNW,328,6.0,8.0,17,0.00,,,0.00,16,WeatherCatV1.20B653,2013-06-26 01:58:00,
2013-06-25 20:03:00,71.6,24.5,30.19,NW,306,0.0,8.0,17,0.00,,,0.00,14,WeatherCatV1.20B653,2013-06-26 02:03:00,
2013-06-25 20:08:00,71.3,25.6,30.19,West,275,4.0,10.0,18,0.00,,,0.00,14,WeatherCatV1.20B653,2013-06-26 02:08:00,
2013-06-25 20:13:00,70.9,25.3,30.19,NW,312,8.0,11.0,18,0.00,,,0.00,12,WeatherCatV1.20B653,2013-06-26 02:13:00,
2013-06-25 20:18:00,70.8,25.2,30.20,WNW,291,7.0,9.0,18,0.00,,,0.00,11,WeatherCatV1.20B653,2013-06-26 02:18:00,
2013-06-25 20:23:00,70.4,24.9,30.20,NNW,329,5.0,7.0,18,0.00,,,0.00,9,WeatherCatV1.20B653,2013-06-26 02:23:00,
2013-06-25 20:28:00,70.1,25.9,30.20,WNW,289,5.0,8.0,19,0.00,,,0.00,7,WeatherCatV1.20B653,2013-06-26 02:28:00,
2013-06-25 20:33:00,69.8,25.7,30.20,WNW,302,10.0,13.0,19,0.00,,,0.00,7,WeatherCatV1.20B653,2013-06-26 02:33:00,
2013-06-25 20:38:00,69.8,25.7,30.20,WNW,284,11.0,11.0,19,0.00,,,0.00,5,WeatherCatV1.20B653,2013-06-26 02:38:00,
2013-06-25 20:43:00,69.6,25.5,30.20,NW,306,10.0,10.0,19,0.00,,,0.00,0,WeatherCatV1.20B653,2013-06-26 02:43:00,
2013-06-25 20:48:00,69.3,25.3,30.20,WNW,291,5.0,8.0,19,0.00,,,0.00,0,WeatherCatV1.20B653,2013-06-26 02:48:00,
2013-06-25 20:53:00,68.8,24.9,30.20,NW,323,7.0,8.0,19,0.00,,,0.00,0,WeatherCatV1.20B653,2013-06-26 02:53:00,
2013-06-25 20:58:00,68.4,25.8,30.20,WNW,299,6.0,11.0,20,0.00,,,0.00,0,WeatherCatV1.20B653,2013-06-26 02:58:00,
2013-06-25 21:03:00,67.9,25.4,30.21,NNW,347,7.0,9.0,20,0.00,,,0.00,0,WeatherCatV1.20B653,2013-06-26 03:03:00,
2013-06-25 21:08:00,67.6,25.1,30.21,NNW,332,7.0,7.0,20,0.00,,,0.00,0,WeatherCatV1.20B653,2013-06-26 03:08:00,
2013-06-25 21:13:00,67.4,24.9,30.21,NW,309,2.0,6.0,20,0.00,,,0.00,0,WeatherCatV1.20B653,2013-06-26 03:13:00,
2013-06-25 21:18:00,66.9,25.7,30.22,North,353,1.0,7.0,21,0.00,,,0.00,0,WeatherCatV1.20B653,2013-06-26 03:18:00,
2013-06-25 21:23:00,66.4,25.3,30.22,NNW,344,0.0,0.0,21,0.00,,,0.00,0,WeatherCatV1.20B653,2013-06-26 03:23:00,
2013-06-25 21:28:00,66.1,25.0,30.22,NNW,344,0.0,0.0,21,0.00,,,0.00,0,WeatherCatV1.20B653,2013-06-26 03:28:00,
2013-06-25 21:33:00,65.6,25.7,30.23,NNW,344,1.0,2.0,22,0.00,,,0.00,0,WeatherCatV1.20B653,2013-06-26 03:33:00,
2013-06-25 21:38:00,65.2,25.4,30.23,NNW,344,0.0,0.0,22,0.00,,,0.00,0,WeatherCatV1.20B653,2013-06-26 03:38:00,
2013-06-25 21:43:00,64.7,25.0,30.23,NNW,344,0.0,0.0,22,0.00,,,0.00,0,WeatherCatV1.20B653,2013-06-26 03:43:00,
2013-06-25 21:48:00,63.9,25.4,30.24,NNW,344,3.0,3.0,23,0.00,,,0.00,0,WeatherCatV1.20B653,2013-06-26 03:48:00,
2013-06-25 21:53:00,63.1,25.7,30.24,NNW,329,6.0,6.0,24,0.00,,,0.00,0,WeatherCatV1.20B653,2013-06-26 03:53:00,
2013-06-25 21:58:00,62.4,25.1,30.24,NW,308,6.0,8.0,24,0.00,,,0.00,0,WeatherCatV1.20B653,2013-06-26 03:58:00,
2013-06-25 22:01:00,62.4,25.1,30.24,NW,304,7.0,10.0,24,0.00,,,0.00,0,WeatherCatV1.20B653,2013-06-26 04:01:00,
2013-06-25 22:05:00,62.4,25.1,30.24,NW,318,5.0,10.0,24,0.00,,,0.00,0,WeatherCatV1.20B653,2013-06-26 04:05:00,
2013-06-25 22:06:00,63.2,24.8,30.24,WNW,291,7.0,12.0,23,0.00,,,0.00,0,WeatherCatV1.20B653,2013-06-26 04:06:00,
2013-06-25 22:10:00,63.1,24.7,30.24,NW,309,7.0,12.0,23,0.00,,,0.00,0,WeatherCatV1.20B653,2013-06-26 04:10:00,
2013-06-25 22:15:00,63.1,24.7,30.24,NW,309,7.0,12.0,23,0.00,,,0.00,0,WeatherCatV1.20B653,2013-06-26 04:15:00,
2013-06-25 22:20:00,64.5,25.9,30.25,WNW,292,8.0,12.0,23,0.00,,,0.00,0,WeatherCatV1.20B653,2013-06-26 04:20:00,
2013-06-25 22:25:00,64.5,25.9,30.25,WNW,292,8.0,12.0,23,0.00,,,0.00,0,WeatherCatV1.20B653,2013-06-26 04:25:00,
2013-06-25 22:30:00,64.5,25.9,30.25,WNW,292,8.0,12.0,23,0.00,,,0.00,0,WeatherCatV1.20B653,2013-06-26 04:30:00,
2013-06-25 22:35:00,63.7,26.2,30.25,WNW,292,8.0,13.0,24,0.00,,,0.00,0,WeatherCatV1.20B653,2013-06-26 04:35:00,
2013-06-25 22:40:00,63.7,26.2,30.25,WNW,292,8.0,13.0,24,0.00,,,0.00,0,WeatherCatV1.20B653,2013-06-26 04:40:00,
2013-06-25 22:45:00,63.7,26.2,30.25,WNW,292,8.0,13.0,24,0.00,,,0.00,0,WeatherCatV1.20B653,2013-06-26 04:45:00,
2013-06-25 22:50:00,62.7,25.4,30.25,WNW,292,10.0,14.0,24,0.00,,,0.00,0,WeatherCatV1.20B653,2013-06-26 04:50:00,
2013-06-25 22:55:00,62.7,25.4,30.25,WNW,292,10.0,14.0,24,0.00,,,0.00,0,WeatherCatV1.20B653,2013-06-26 04:55:00,
2013-06-25 23:00:00,62.7,25.4,30.25,WNW,292,10.0,14.0,24,0.00,,,0.00,0,WeatherCatV1.20B653,2013-06-26 05:00:00,
2013-06-25 23:05:00,62.1,25.9,30.25,WNW,292,10.0,16.0,25,0.00,,,0.00,0,WeatherCatV1.20B653,2013-06-26 05:05:00,
2013-06-25 23:10:00,62.1,25.9,30.25,WNW,292,10.0,16.0,25,0.00,,,0.00,0,WeatherCatV1.20B653,2013-06-26 05:10:00,
2013-06-25 23:15:00,62.1,25.9,30.25,WNW,292,10.0,16.0,25,0.00,,,0.00,0,WeatherCatV1.20B653,2013-06-26 05:15:00,
2013-06-25 23:20:00,61.2,26.0,30.26,WNW,292,9.0,13.0,26,0.00,,,0.00,0,WeatherCatV1.20B653,2013-06-26 05:20:00,
2013-06-25 23:25:00,61.2,26.0,30.26,WNW,292,9.0,13.0,26,0.00,,,0.00,0,WeatherCatV1.20B653,2013-06-26 05:25:00,
2013-06-25 23:30:00,61.2,26.0,30.26,WNW,292,9.0,13.0,26,0.00,,,0.00,0,WeatherCatV1.20B653,2013-06-26 05:30:00,
2013-06-25 23:35:00,61.0,25.9,30.26,WNW,292,9.0,12.0,26,0.00,,,0.00,0,WeatherCatV1.20B653,2013-06-26 05:35:00,
2013-06-25 23:40:00,61.0,25.9,30.26,WNW,292,9.0,12.0,26,0.00,,,0.00,0,WeatherCatV1.20B653,2013-06-26 05:40:00,
2013-06-25 23:45:00,61.0,25.9,30.26,WNW,292,9.0,12.0,26,0.00,,,0.00,0,WeatherCatV1.20B653,2013-06-26 05:45:00,
2013-06-25 23:50:00,60.5,25.5,30.26,WNW,292,7.0,12.0,26,0.00,,,0.00,0,WeatherCatV1.20B653,2013-06-26 05:50:00,
2013-06-25 23:55:00,60.5,25.5,30.26,WNW,292,7.0,12.0,26,0.00,,,0.00,0,WeatherCatV1.20B653,2013-06-26 05:55:00,